createdAt,value
2017-02-24T00:00:27.923Z,986.26
2017-02-24T00:01:39.352Z,986.29
2017-02-24T00:02:50.790Z,986.36
2017-02-24T00:04:02.239Z,986.42
2017-02-24T00:05:13.669Z,986.43
2017-02-24T00:06:25.154Z,986.45
2017-02-24T00:07:36.604Z,986.58
2017-02-24T00:08:48.046Z,986.69
2017-02-24T00:09:59.481Z,986.73
2017-02-24T00:11:10.933Z,986.88
2017-02-24T00:12:22.364Z,986.88
2017-02-24T00:13:33.996Z,987.15
2017-02-24T00:14:45.442Z,987.16
2017-02-24T00:15:56.923Z,987.35
2017-02-24T00:17:08.560Z,987.48
2017-02-24T00:18:19.990Z,987.61
2017-02-24T00:19:31.418Z,987.8
2017-02-24T00:20:42.870Z,988.16
2017-02-24T00:21:54.305Z,988.33
2017-02-24T00:23:05.761Z,988.38
2017-02-24T00:24:17.185Z,988.58
2017-02-24T00:25:28.623Z,988.66
2017-02-24T00:26:40.122Z,988.85
2017-02-24T00:27:51.556Z,988.88
2017-02-24T00:29:02.990Z,989.06
2017-02-24T00:30:14.415Z,989.19
2017-02-24T00:31:25.857Z,989.15
2017-02-24T00:32:37.288Z,989.24
2017-02-24T00:33:48.733Z,989.46
2017-02-24T00:35:00.175Z,989.57
2017-02-24T00:36:11.612Z,989.8
2017-02-24T00:37:23.043Z,989.71
2017-02-24T00:38:34.666Z,989.95
2017-02-24T00:39:46.306Z,989.94
2017-02-24T00:40:57.781Z,990.22
2017-02-24T00:42:09.412Z,990.2
2017-02-24T00:43:20.856Z,990.37
2017-02-24T00:44:32.491Z,990.55
2017-02-24T00:45:43.935Z,990.6
2017-02-24T00:46:55.381Z,990.74
2017-02-24T00:48:06.821Z,990.83
2017-02-24T00:49:18.298Z,990.84
2017-02-24T00:50:29.724Z,990.85
2017-02-24T00:51:41.153Z,991.04
2017-02-24T00:52:52.587Z,991.34
2017-02-24T00:54:04.090Z,991.35
2017-02-24T00:55:15.534Z,991.3
2017-02-24T00:56:26.985Z,991.37
2017-02-24T00:57:38.420Z,991.43
2017-02-24T00:58:49.901Z,991.55
2017-02-24T01:00:01.374Z,991.62
2017-02-24T01:01:13.004Z,991.63
2017-02-24T01:02:24.659Z,991.83
2017-02-24T01:03:36.097Z,991.83
2017-02-24T01:04:47.530Z,991.77
2017-02-24T01:05:58.960Z,991.95
2017-02-24T01:07:10.400Z,992.08
2017-02-24T01:08:21.852Z,992.06
2017-02-24T01:09:33.542Z,992.16
2017-02-24T01:10:44.973Z,992.23
2017-02-24T01:11:56.412Z,992.25
2017-02-24T01:13:07.839Z,992.49
2017-02-24T01:14:19.285Z,992.49
2017-02-24T01:15:30.718Z,992.51
2017-02-24T01:16:42.163Z,992.64
2017-02-24T01:17:53.605Z,992.68
2017-02-24T01:19:05.043Z,992.78
2017-02-24T01:20:16.544Z,992.89
2017-02-24T01:21:27.975Z,992.95
2017-02-24T01:22:39.410Z,993.08
2017-02-24T01:23:50.849Z,993.06
2017-02-24T01:25:02.276Z,993.13
2017-02-24T01:26:13.755Z,993.16
2017-02-24T01:27:25.183Z,993.25
2017-02-24T01:28:36.821Z,993.32
2017-02-24T01:29:48.470Z,993.29
2017-02-24T01:30:59.896Z,993.41
2017-02-24T01:32:11.351Z,993.41
2017-02-24T01:33:22.778Z,993.63
2017-02-24T01:34:34.208Z,993.71
2017-02-24T01:35:45.635Z,993.72
2017-02-24T01:36:57.109Z,993.86
2017-02-24T01:38:08.751Z,993.91
2017-02-24T01:39:20.199Z,993.92
2017-02-24T01:40:31.615Z,993.88
2017-02-24T01:41:43.056Z,994.15
2017-02-24T01:42:54.537Z,994.17
2017-02-24T01:44:05.983Z,994.17
2017-02-24T01:45:17.620Z,994.24
2017-02-24T01:46:29.057Z,994.25
2017-02-24T01:47:40.491Z,994.34
2017-02-24T01:48:52.116Z,994.43
2017-02-24T01:50:03.560Z,994.43
2017-02-24T01:51:14.981Z,994.42
2017-02-24T01:52:26.423Z,994.48
2017-02-24T01:53:37.908Z,994.55
2017-02-24T01:54:49.333Z,994.55
2017-02-24T01:56:00.754Z,994.59
2017-02-24T01:57:12.238Z,994.58
2017-02-24T01:58:23.877Z,994.75
2017-02-24T01:59:35.337Z,994.62
2017-02-24T02:00:46.774Z,994.65
2017-02-24T02:01:58.226Z,994.76
2017-02-24T02:03:09.654Z,994.78
2017-02-24T02:04:21.286Z,994.89
2017-02-24T02:05:32.718Z,994.89
2017-02-24T02:06:44.147Z,994.94
2017-02-24T02:07:55.568Z,995.01
2017-02-24T02:09:07.280Z,995.05
2017-02-24T02:10:18.791Z,995.08
2017-02-24T02:11:30.287Z,995.16
2017-02-24T02:12:41.785Z,995.16
2017-02-24T02:13:53.308Z,995.23
2017-02-24T02:15:05.010Z,995.33
2017-02-24T02:16:16.575Z,995.37
2017-02-24T02:17:28.092Z,995.41
2017-02-24T02:18:39.807Z,995.38
2017-02-24T02:19:51.502Z,995.49
2017-02-24T02:21:03.053Z,995.52
2017-02-24T02:22:14.559Z,995.58
2017-02-24T02:23:26.031Z,995.62
2017-02-24T02:24:37.550Z,995.66
2017-02-24T02:25:49.105Z,995.69
2017-02-24T02:27:00.817Z,995.79
2017-02-24T02:28:12.303Z,995.75
2017-02-24T02:29:23.805Z,995.83
2017-02-24T02:30:35.310Z,995.87
2017-02-24T02:31:46.808Z,995.87
2017-02-24T02:32:58.306Z,995.93
2017-02-24T02:34:09.990Z,995.94
2017-02-24T02:35:21.909Z,996
2017-02-24T02:36:33.455Z,996.05
2017-02-24T02:37:44.951Z,996.06
2017-02-24T02:38:56.445Z,996.09
2017-02-24T02:40:07.947Z,996.17
2017-02-24T02:41:19.655Z,996.12
2017-02-24T02:42:31.204Z,996.25
2017-02-24T02:43:42.684Z,996.23
2017-02-24T02:44:54.372Z,996.26
2017-02-24T02:46:05.869Z,996.22
2017-02-24T02:47:17.390Z,996.27
2017-02-24T02:48:28.874Z,996.38
2017-02-24T02:49:40.379Z,996.39
2017-02-24T02:50:51.871Z,996.41
2017-02-24T02:52:03.361Z,996.45
2017-02-24T02:53:15.094Z,996.42
2017-02-24T02:54:26.572Z,996.45
2017-02-24T02:55:38.064Z,996.51
2017-02-24T02:56:49.546Z,996.5
2017-02-24T02:58:01.065Z,996.48
2017-02-24T02:59:12.563Z,996.44
2017-02-24T03:00:24.061Z,996.52
2017-02-24T03:01:35.552Z,996.59
2017-02-24T03:02:47.114Z,996.62
2017-02-24T03:03:58.606Z,996.67
2017-02-24T03:05:10.299Z,996.7
2017-02-24T03:06:21.801Z,996.8
2017-02-24T03:07:33.305Z,996.8
2017-02-24T03:08:44.793Z,996.79
2017-02-24T03:09:56.505Z,996.89
2017-02-24T03:11:07.999Z,996.87
2017-02-24T03:12:19.501Z,996.91
2017-02-24T03:13:31.052Z,996.87
2017-02-24T03:14:43.171Z,996.92
2017-02-24T03:15:54.650Z,996.92
2017-02-24T03:17:06.142Z,996.97
2017-02-24T03:18:17.640Z,997.03
2017-02-24T03:19:29.130Z,996.99
2017-02-24T03:20:40.675Z,997.05
2017-02-24T03:21:52.155Z,997.07
2017-02-24T03:23:03.648Z,997.11
2017-02-24T03:24:15.202Z,997.15
2017-02-24T03:25:26.700Z,997.11
2017-02-24T03:26:38.189Z,997.15
2017-02-24T03:27:49.695Z,997.08
2017-02-24T03:29:01.202Z,997.18
2017-02-24T03:30:12.702Z,997.19
2017-02-24T03:31:24.201Z,997.26
2017-02-24T03:32:35.714Z,997.34
2017-02-24T03:33:47.241Z,997.28
2017-02-24T03:34:58.723Z,997.28
2017-02-24T03:36:10.273Z,997.36
2017-02-24T03:37:21.822Z,997.36
2017-02-24T03:38:33.332Z,997.39
2017-02-24T03:39:44.819Z,997.37
2017-02-24T03:40:56.322Z,997.46
2017-02-24T03:42:07.804Z,997.45
2017-02-24T03:43:19.303Z,997.55
2017-02-24T03:44:31.036Z,997.51
2017-02-24T03:45:42.593Z,997.59
2017-02-24T03:46:54.088Z,997.69
2017-02-24T03:48:05.583Z,997.68
2017-02-24T03:49:17.087Z,997.68
2017-02-24T03:50:28.787Z,997.68
2017-02-24T03:51:40.285Z,997.69
2017-02-24T03:52:51.998Z,997.73
2017-02-24T03:54:03.481Z,997.79
2017-02-24T03:55:15.179Z,997.88
2017-02-24T03:56:26.917Z,997.93
2017-02-24T03:57:38.420Z,997.89
2017-02-24T03:58:50.310Z,997.94
2017-02-24T04:00:01.821Z,997.96
2017-02-24T04:01:13.317Z,997.99
2017-02-24T04:02:25.028Z,998.02
2017-02-24T04:03:36.541Z,998.04
2017-02-24T04:04:48.017Z,998.03
2017-02-24T04:05:59.728Z,998.04
2017-02-24T04:07:11.279Z,998.17
2017-02-24T04:08:22.765Z,998.21
2017-02-24T04:09:34.261Z,998.21
2017-02-24T04:10:45.753Z,998.28
2017-02-24T04:11:57.254Z,998.31
2017-02-24T04:13:08.954Z,998.37
2017-02-24T04:14:20.663Z,998.39
2017-02-24T04:15:32.146Z,998.45
2017-02-24T04:16:43.689Z,998.45
2017-02-24T04:17:55.168Z,998.46
2017-02-24T04:19:06.675Z,998.57
2017-02-24T04:20:18.180Z,998.56
2017-02-24T04:21:29.679Z,998.65
2017-02-24T04:22:41.167Z,998.63
2017-02-24T04:23:52.637Z,998.61
2017-02-24T04:25:04.179Z,998.59
2017-02-24T04:26:15.664Z,998.68
2017-02-24T04:27:27.373Z,998.71
2017-02-24T04:28:38.877Z,998.71
2017-02-24T04:29:50.370Z,998.75
2017-02-24T04:31:01.870Z,998.77
2017-02-24T04:32:13.329Z,998.9
2017-02-24T04:33:24.855Z,998.81
2017-02-24T04:34:36.404Z,998.92
2017-02-24T04:35:47.889Z,998.95
2017-02-24T04:36:59.580Z,998.97
2017-02-24T04:38:11.038Z,998.92
2017-02-24T04:39:22.513Z,999
2017-02-24T04:40:34.474Z,998.85
2017-02-24T04:41:45.985Z,999.08
2017-02-24T04:42:57.497Z,999.03
2017-02-24T04:44:08.998Z,999.03
2017-02-24T04:45:20.547Z,999.01
2017-02-24T04:46:32.054Z,999.05
2017-02-24T04:47:43.560Z,999.09
2017-02-24T04:48:55.259Z,999.14
2017-02-24T04:50:06.766Z,999.1
2017-02-24T04:51:18.242Z,999.09
2017-02-24T04:52:29.742Z,999.16
2017-02-24T04:53:41.264Z,999.13
2017-02-24T04:54:52.774Z,999.15
2017-02-24T04:56:04.302Z,999.28
2017-02-24T04:57:16.015Z,999.3
2017-02-24T04:58:27.714Z,999.33
2017-02-24T04:59:39.231Z,999.42
2017-02-24T05:00:50.715Z,999.41
2017-02-24T05:02:02.209Z,999.46
2017-02-24T05:03:13.896Z,999.49
2017-02-24T05:04:25.801Z,999.48
2017-02-24T05:05:37.289Z,999.55
2017-02-24T05:06:48.785Z,999.57
2017-02-24T05:08:00.344Z,999.63
2017-02-24T05:09:11.853Z,999.63
2017-02-24T05:10:23.391Z,999.67
2017-02-24T05:11:34.898Z,999.71
2017-02-24T05:12:46.393Z,999.77
2017-02-24T05:13:58.064Z,999.79
2017-02-24T05:15:09.544Z,999.8
2017-02-24T05:16:21.034Z,999.84
2017-02-24T05:17:32.612Z,999.85
2017-02-24T05:18:44.127Z,999.87
2017-02-24T05:19:55.626Z,999.94
2017-02-24T05:21:07.117Z,999.96
2017-02-24T05:22:18.630Z,999.98
2017-02-24T05:23:30.530Z,1000
2017-02-24T05:24:42.245Z,999.99
2017-02-24T05:25:53.751Z,1000.03
2017-02-24T05:27:05.287Z,1000.03
2017-02-24T05:28:17.029Z,1000
2017-02-24T05:29:28.518Z,1000.08
2017-02-24T05:30:40.028Z,1000.09
2017-02-24T05:31:51.519Z,1000.09
2017-02-24T05:33:03.254Z,1000.14
2017-02-24T05:34:14.762Z,1000.17
2017-02-24T05:35:26.251Z,1000.17
2017-02-24T05:36:37.755Z,1000.24
2017-02-24T05:37:49.273Z,1000.23
2017-02-24T05:39:00.792Z,1000.21
2017-02-24T05:40:12.306Z,1000.24
2017-02-24T05:41:23.820Z,1000.27
2017-02-24T05:42:35.328Z,1000.28
2017-02-24T05:43:46.828Z,1000.29
2017-02-24T05:44:58.338Z,1000.33
2017-02-24T05:46:09.831Z,1000.41
2017-02-24T05:47:21.323Z,1000.41
2017-02-24T05:48:33.028Z,1000.46
2017-02-24T05:49:44.497Z,1000.45
2017-02-24T05:50:56.056Z,1000.51
2017-02-24T05:52:07.953Z,1000.52
2017-02-24T05:53:19.660Z,1000.6
2017-02-24T05:54:31.388Z,1000.62
2017-02-24T05:55:43.106Z,1000.72
2017-02-24T05:56:54.615Z,1000.7
2017-02-24T05:58:06.107Z,1000.72
2017-02-24T05:59:17.605Z,1000.72
2017-02-24T06:00:29.158Z,1000.82
2017-02-24T06:01:40.849Z,1000.79
2017-02-24T06:02:52.364Z,1000.87
2017-02-24T06:04:03.875Z,1000.91
2017-02-24T06:05:15.374Z,1000.95
2017-02-24T06:06:27.084Z,1001.01
2017-02-24T06:07:38.573Z,1001.01
2017-02-24T06:08:50.058Z,1001.06
2017-02-24T06:10:01.588Z,1001.06
2017-02-24T06:11:13.342Z,1001.11
2017-02-24T06:12:24.838Z,1001.14
2017-02-24T06:13:36.326Z,1001.21
2017-02-24T06:14:47.807Z,1001.22
2017-02-24T06:15:59.299Z,1001.24
2017-02-24T06:17:10.865Z,1001.29
2017-02-24T06:18:22.361Z,1001.32
2017-02-24T06:19:34.258Z,1001.29
2017-02-24T06:20:45.739Z,1001.34
2017-02-24T06:21:57.442Z,1001.37
2017-02-24T06:23:08.929Z,1001.38
2017-02-24T06:24:20.413Z,1001.47
2017-02-24T06:25:31.889Z,1001.49
2017-02-24T06:26:43.410Z,1001.48
2017-02-24T06:27:54.958Z,1001.54
2017-02-24T06:29:06.448Z,1001.59
2017-02-24T06:30:17.950Z,1001.58
2017-02-24T06:31:29.449Z,1001.62
2017-02-24T06:32:40.956Z,1001.68
2017-02-24T06:33:52.512Z,1001.67
2017-02-24T06:35:04.006Z,1001.69
2017-02-24T06:36:15.716Z,1001.81
2017-02-24T06:37:27.416Z,1001.82
2017-02-24T06:38:39.099Z,1001.86
2017-02-24T06:39:50.812Z,1001.9
2017-02-24T06:41:02.314Z,1001.91
2017-02-24T06:42:13.807Z,1001.95
2017-02-24T06:43:25.311Z,1001.98
2017-02-24T06:44:37.023Z,1002
2017-02-24T06:45:48.709Z,1002.05
2017-02-24T06:47:00.209Z,1002.03
2017-02-24T06:48:11.904Z,1002.02
2017-02-24T06:49:23.454Z,1002.12
2017-02-24T06:50:34.943Z,1002.11
2017-02-24T06:51:46.633Z,1002.17
2017-02-24T06:52:58.102Z,1002.19
2017-02-24T06:54:09.608Z,1002.17
2017-02-24T06:55:21.094Z,1002.24
2017-02-24T06:56:32.773Z,1002.21
2017-02-24T06:57:44.254Z,1002.28
2017-02-24T06:58:55.796Z,1002.27
2017-02-24T07:00:07.306Z,1002.24
2017-02-24T07:01:18.817Z,1002.3
2017-02-24T07:02:30.356Z,1002.34
2017-02-24T07:03:42.261Z,1002.32
2017-02-24T07:04:53.755Z,1002.39
2017-02-24T07:06:05.242Z,1002.48
2017-02-24T07:07:16.725Z,1002.47
2017-02-24T07:08:28.213Z,1002.49
2017-02-24T07:09:39.715Z,1002.59
2017-02-24T07:10:51.460Z,1002.61
2017-02-24T07:12:03.144Z,1002.65
2017-02-24T07:13:14.639Z,1002.67
2017-02-24T07:14:26.141Z,1002.7
2017-02-24T07:15:37.636Z,1002.74
2017-02-24T07:16:49.126Z,1002.78
2017-02-24T07:18:00.644Z,1002.78
2017-02-24T07:19:12.124Z,1002.82
2017-02-24T07:20:23.699Z,1002.82
2017-02-24T07:21:35.179Z,1002.92
2017-02-24T07:22:46.673Z,1002.97
2017-02-24T07:23:58.154Z,1003.06
2017-02-24T07:25:09.667Z,1003.09
2017-02-24T07:26:21.187Z,1003.14
2017-02-24T07:27:32.694Z,1003.24
2017-02-24T07:28:44.396Z,1003.33
2017-02-24T07:29:55.883Z,1003.32
2017-02-24T07:31:07.439Z,1003.34
2017-02-24T07:32:18.942Z,1003.46
2017-02-24T07:33:30.423Z,1003.45
2017-02-24T07:34:41.895Z,1003.35
2017-02-24T07:35:53.409Z,1003.49
2017-02-24T07:37:04.906Z,1003.49
2017-02-24T07:38:16.401Z,1003.59
2017-02-24T07:39:27.871Z,1003.66
2017-02-24T07:40:39.368Z,1003.51
2017-02-24T07:41:50.930Z,1003.64
2017-02-24T07:43:02.658Z,1003.57
2017-02-24T07:44:14.174Z,1003.65
2017-02-24T07:45:25.687Z,1003.73
2017-02-24T07:46:37.176Z,1003.74
2017-02-24T07:47:48.706Z,1003.76
2017-02-24T07:49:00.221Z,1003.79
2017-02-24T07:50:11.744Z,1003.87
2017-02-24T07:51:23.251Z,1003.9
2017-02-24T07:52:34.976Z,1003.94
2017-02-24T07:53:46.737Z,1003.92
2017-02-24T07:54:58.416Z,1004.02
2017-02-24T07:56:09.906Z,1004.05
2017-02-24T07:57:21.410Z,1004.07
2017-02-24T07:58:32.931Z,1004.1
2017-02-24T07:59:44.449Z,1004.17
2017-02-24T08:00:55.942Z,1004.24
2017-02-24T08:02:07.440Z,1004.26
2017-02-24T08:03:18.990Z,1004.33
2017-02-24T08:04:30.678Z,1004.38
2017-02-24T08:05:42.359Z,1004.4
2017-02-24T08:06:53.881Z,1004.39
2017-02-24T08:08:05.369Z,1004.43
2017-02-24T08:09:16.845Z,1004.49
2017-02-24T08:10:28.351Z,1004.52
2017-02-24T08:11:39.846Z,1004.52
2017-02-24T08:12:51.377Z,1004.51
2017-02-24T08:14:02.941Z,1004.6
2017-02-24T08:15:14.443Z,1004.61
2017-02-24T08:16:25.944Z,1004.62
2017-02-24T08:17:37.440Z,1004.68
2017-02-24T08:18:48.966Z,1004.73
2017-02-24T08:20:00.471Z,1004.71
2017-02-24T08:21:11.990Z,1004.79
2017-02-24T08:22:23.500Z,1004.78
2017-02-24T08:23:34.993Z,1004.8
2017-02-24T08:24:46.521Z,1004.82
2017-02-24T08:25:58.442Z,1004.81
2017-02-24T08:27:09.953Z,1004.82
2017-02-24T08:28:21.447Z,1004.84
2017-02-24T08:29:32.951Z,1004.91
2017-02-24T08:30:44.470Z,1004.94
2017-02-24T08:31:55.985Z,1004.96
2017-02-24T08:33:07.688Z,1004.96
2017-02-24T08:34:19.202Z,1005.12
2017-02-24T08:35:30.713Z,1005.03
2017-02-24T08:36:42.263Z,1005.17
2017-02-24T08:37:53.778Z,1005.24
2017-02-24T08:39:05.299Z,1005.25
2017-02-24T08:40:16.818Z,1005.25
2017-02-24T08:41:28.307Z,1005.37
2017-02-24T08:42:39.831Z,1005.36
2017-02-24T08:43:51.329Z,1005.38
2017-02-24T08:45:02.834Z,1005.39
2017-02-24T08:46:14.377Z,1005.44
2017-02-24T08:47:26.088Z,1005.43
2017-02-24T08:48:37.601Z,1005.53
2017-02-24T08:49:49.131Z,1005.47
2017-02-24T08:51:00.663Z,1005.41
2017-02-24T08:52:12.170Z,1005.49
2017-02-24T08:53:23.903Z,1005.47
2017-02-24T08:54:35.446Z,1005.5
2017-02-24T08:55:46.939Z,1005.52
2017-02-24T08:56:58.483Z,1005.56
2017-02-24T08:58:09.999Z,1005.6
2017-02-24T08:59:21.493Z,1005.63
2017-02-24T09:00:33.009Z,1005.65
2017-02-24T09:01:44.529Z,1005.71
2017-02-24T09:02:56.039Z,1005.72
2017-02-24T09:04:07.786Z,1005.69
2017-02-24T09:05:19.317Z,1005.75
2017-02-24T09:06:30.845Z,1005.78
2017-02-24T09:07:42.510Z,1005.81
2017-02-24T09:08:54.230Z,1005.78
2017-02-24T09:10:05.751Z,1005.76
2017-02-24T09:11:17.239Z,1005.8
2017-02-24T09:12:28.753Z,1005.83
2017-02-24T09:13:40.323Z,1005.83
2017-02-24T09:14:51.822Z,1005.88
2017-02-24T09:16:03.331Z,1005.93
2017-02-24T09:17:15.042Z,1005.96
2017-02-24T09:18:26.563Z,1005.96
2017-02-24T09:19:38.116Z,1006.01
2017-02-24T09:20:49.624Z,1006.03
2017-02-24T09:22:01.126Z,1006.08
2017-02-24T09:23:12.645Z,1006.1
2017-02-24T09:24:24.153Z,1006.12
2017-02-24T09:25:35.659Z,1006.17
2017-02-24T09:26:47.160Z,1006.14
2017-02-24T09:27:58.653Z,1006.18
2017-02-24T09:29:10.222Z,1006.25
2017-02-24T09:30:21.728Z,1006.3
2017-02-24T09:31:33.292Z,1006.26
2017-02-24T09:32:44.993Z,1006.28
2017-02-24T09:33:56.687Z,1006.25
2017-02-24T09:35:08.203Z,1006.34
2017-02-24T09:36:19.701Z,1006.31
2017-02-24T09:37:31.464Z,1006.41
2017-02-24T09:38:42.981Z,1006.43
2017-02-24T09:39:54.556Z,1006.43
2017-02-24T09:41:06.067Z,1006.45
2017-02-24T09:42:17.567Z,1006.42
2017-02-24T09:43:29.276Z,1006.46
2017-02-24T09:44:40.824Z,1006.48
2017-02-24T09:45:52.314Z,1006.55
2017-02-24T09:47:04.036Z,1006.56
2017-02-24T09:48:15.557Z,1006.62
2017-02-24T09:49:27.060Z,1006.68
2017-02-24T09:50:38.618Z,1006.67
2017-02-24T09:51:50.127Z,1006.71
2017-02-24T09:53:01.644Z,1006.74
2017-02-24T09:54:13.345Z,1006.76
2017-02-24T09:55:24.865Z,1006.8
2017-02-24T09:56:36.401Z,1006.85
2017-02-24T09:57:47.930Z,1006.8
2017-02-24T09:58:59.451Z,1006.77
2017-02-24T10:00:11.013Z,1006.75
2017-02-24T10:01:22.706Z,1006.98
2017-02-24T10:02:34.285Z,1006.9
2017-02-24T10:03:46.022Z,1006.85
2017-02-24T10:04:57.543Z,1006.94
2017-02-24T10:06:09.104Z,1006.98
2017-02-24T10:07:20.713Z,1006.84
2017-02-24T10:08:32.231Z,1007.02
2017-02-24T10:09:43.740Z,1006.96
2017-02-24T10:10:55.653Z,1007.02
2017-02-24T10:12:07.264Z,1006.97
2017-02-24T10:13:18.827Z,1007.09
2017-02-24T10:14:30.356Z,1007.04
2017-02-24T10:15:42.099Z,1007.04
2017-02-24T10:16:53.625Z,1007.1
2017-02-24T10:18:05.154Z,1007.11
2017-02-24T10:19:16.697Z,1007.1
2017-02-24T10:20:28.206Z,1007.18
2017-02-24T10:21:39.914Z,1007.11
2017-02-24T10:22:51.481Z,1007.06
2017-02-24T10:24:02.989Z,1007.14
2017-02-24T10:25:14.509Z,1007.45
2017-02-24T10:26:26.027Z,1007.31
2017-02-24T10:27:37.729Z,1007.29
2017-02-24T10:28:49.272Z,1007.46
2017-02-24T10:30:00.774Z,1007.3
2017-02-24T10:31:12.305Z,1007.28
2017-02-24T10:32:23.831Z,1007.53
2017-02-24T10:33:35.414Z,1007.42
2017-02-24T10:34:47.145Z,1007.38
2017-02-24T10:35:58.656Z,1007.39
2017-02-24T10:37:10.204Z,1007.45
2017-02-24T10:38:21.744Z,1007.4
2017-02-24T10:39:33.661Z,1007.4
2017-02-24T10:40:45.203Z,1007.34
2017-02-24T10:41:56.701Z,1007.52
2017-02-24T10:43:08.419Z,1007.3
2017-02-24T10:44:19.963Z,1007.33
2017-02-24T10:45:31.493Z,1007.43
2017-02-24T10:46:43.200Z,1007.54
2017-02-24T10:47:54.726Z,1007.36
2017-02-24T10:49:06.231Z,1007.46
2017-02-24T10:50:17.731Z,1007.78
2017-02-24T10:51:29.294Z,1008.14
2017-02-24T10:52:41.017Z,1008.6
2017-02-24T10:53:52.737Z,1009.06
2017-02-24T10:55:04.251Z,1009.13
2017-02-24T10:56:15.744Z,1009.04
2017-02-24T10:57:27.258Z,1007.78
2017-02-24T10:58:38.979Z,1010.23
2017-02-24T10:59:50.490Z,1010.18
2017-02-24T11:01:02.067Z,1007.65
2017-02-24T11:02:13.566Z,1007.68
2017-02-24T11:03:25.085Z,1007.62
2017-02-24T11:04:36.610Z,1007.81
2017-02-24T11:05:48.123Z,1008.83
2017-02-24T11:06:59.651Z,1007.75
2017-02-24T11:08:11.162Z,1007.85
2017-02-24T11:09:22.683Z,1008.29
2017-02-24T11:10:34.198Z,1008.31
2017-02-24T11:11:45.761Z,1008.18
2017-02-24T11:12:57.269Z,1008.18
2017-02-24T11:14:08.784Z,1008.1
2017-02-24T11:15:20.302Z,1007.98
2017-02-24T11:16:31.816Z,1007.86
2017-02-24T11:17:43.508Z,1007.87
2017-02-24T11:18:55.024Z,1007.81
2017-02-24T11:20:06.528Z,1007.86
2017-02-24T11:21:18.052Z,1007.96
2017-02-24T11:22:29.566Z,1008.03
2017-02-24T11:23:41.087Z,1007.84
2017-02-24T11:24:52.587Z,1007.92
2017-02-24T11:26:04.123Z,1008.01
2017-02-24T11:27:15.616Z,1008.01
2017-02-24T11:28:27.395Z,1008.06
2017-02-24T11:29:38.930Z,1008.04
2017-02-24T11:30:50.426Z,1008.09
2017-02-24T11:32:02.127Z,1008.01
2017-02-24T11:33:13.646Z,1008.07
2017-02-24T11:34:25.160Z,1008.21
2017-02-24T11:35:36.682Z,1008.27
2017-02-24T11:36:48.393Z,1008.33
2017-02-24T11:37:59.948Z,1008.18
2017-02-24T11:39:11.487Z,1008.29
2017-02-24T11:40:23.022Z,1008.35
2017-02-24T11:41:34.532Z,1008.33
2017-02-24T11:42:46.058Z,1008.29
2017-02-24T11:43:57.555Z,1008.31
2017-02-24T11:45:09.454Z,1008.36
2017-02-24T11:46:20.951Z,1008.29
2017-02-24T11:47:32.462Z,1008.22
2017-02-24T11:48:44.212Z,1008.12
2017-02-24T11:49:55.725Z,1008.15
2017-02-24T11:51:07.228Z,1008.15
2017-02-24T11:52:18.714Z,1008.15
2017-02-24T11:53:30.238Z,1008.14
2017-02-24T11:54:41.732Z,1008.13
2017-02-24T11:55:53.218Z,1008.17
2017-02-24T11:57:04.731Z,1008.18
2017-02-24T11:58:16.246Z,1008.17
2017-02-24T11:59:27.780Z,1008.18
2017-02-24T12:00:39.259Z,1008.12
2017-02-24T12:01:50.766Z,1008.19
2017-02-24T12:03:02.255Z,1008.26
2017-02-24T12:04:13.966Z,1008.26
2017-02-24T12:05:25.453Z,1008.25
2017-02-24T12:06:37.178Z,1008.33
2017-02-24T12:07:48.686Z,1008.36
2017-02-24T12:09:00.199Z,1008.32
2017-02-24T12:10:11.708Z,1008.38
2017-02-24T12:11:23.195Z,1008.4
2017-02-24T12:12:34.979Z,1008.54
2017-02-24T12:13:46.483Z,1008.51
2017-02-24T12:14:58.193Z,1008.59
2017-02-24T12:16:09.747Z,1008.42
2017-02-24T12:17:21.261Z,1008.45
2017-02-24T12:18:32.745Z,1008.41
2017-02-24T12:19:44.276Z,1008.42
2017-02-24T12:20:55.987Z,1008.4
2017-02-24T12:22:07.466Z,1008.34
2017-02-24T12:23:18.988Z,1008.37
2017-02-24T12:24:30.497Z,1008.43
2017-02-24T12:25:42.071Z,1008.4
2017-02-24T12:26:53.572Z,1008.47
2017-02-24T12:28:05.094Z,1008.48
2017-02-24T12:29:16.597Z,1008.42
2017-02-24T12:30:28.105Z,1008.41
2017-02-24T12:31:39.606Z,1008.41
2017-02-24T12:32:51.108Z,1008.48
2017-02-24T12:34:02.820Z,1008.41
2017-02-24T12:35:14.323Z,1008.38
2017-02-24T12:36:25.874Z,1008.42
2017-02-24T12:37:37.366Z,1008.43
2017-02-24T12:38:48.881Z,1008.42
2017-02-24T12:40:00.386Z,1008.53
2017-02-24T12:41:12.101Z,1008.55
2017-02-24T12:42:23.603Z,1008.54
2017-02-24T12:43:35.124Z,1008.55
2017-02-24T12:44:46.636Z,1008.54
2017-02-24T12:45:58.119Z,1008.54
2017-02-24T12:47:09.690Z,1008.46
2017-02-24T12:48:21.185Z,1008.56
2017-02-24T12:49:32.693Z,1008.57
2017-02-24T12:50:44.197Z,1008.58
2017-02-24T12:51:55.713Z,1008.51
2017-02-24T12:53:07.401Z,1008.56
2017-02-24T12:54:18.907Z,1008.55
2017-02-24T12:55:30.407Z,1008.5
2017-02-24T12:56:41.898Z,1008.54
2017-02-24T12:57:53.405Z,1008.61
2017-02-24T12:59:04.929Z,1008.61
2017-02-24T13:00:16.426Z,1008.54
2017-02-24T13:01:27.933Z,1008.59
2017-02-24T13:02:39.633Z,1008.53
2017-02-24T13:03:51.146Z,1008.44
2017-02-24T13:05:02.695Z,1008.52
2017-02-24T13:06:14.206Z,1008.55
2017-02-24T13:07:25.709Z,1008.51
2017-02-24T13:08:37.210Z,1008.56
2017-02-24T13:09:48.707Z,1008.72
2017-02-24T13:11:00.222Z,1008.53
2017-02-24T13:12:11.738Z,1008.55
2017-02-24T13:13:23.243Z,1008.59
2017-02-24T13:14:34.822Z,1008.64
2017-02-24T13:15:46.339Z,1008.66
2017-02-24T13:16:57.843Z,1008.64
2017-02-24T13:18:09.351Z,1008.67
2017-02-24T13:19:21.053Z,1008.79
2017-02-24T13:20:32.961Z,1008.71
2017-02-24T13:21:44.664Z,1008.73
2017-02-24T13:22:56.209Z,1008.7
2017-02-24T13:24:07.747Z,1008.71
2017-02-24T13:25:19.300Z,1008.66
2017-02-24T13:26:31.012Z,1008.68
2017-02-24T13:27:42.521Z,1008.64
2017-02-24T13:28:54.018Z,1008.66
2017-02-24T13:30:05.528Z,1008.61
2017-02-24T13:31:17.018Z,1008.59
2017-02-24T13:32:28.515Z,1008.52
2017-02-24T13:33:40.217Z,1008.51
2017-02-24T13:34:51.735Z,1008.49
2017-02-24T13:36:03.274Z,1008.51
2017-02-24T13:37:14.788Z,1008.56
2017-02-24T13:38:26.290Z,1008.57
2017-02-24T13:39:37.793Z,1008.64
2017-02-24T13:40:49.318Z,1008.66
2017-02-24T13:42:00.831Z,1008.63
2017-02-24T13:43:12.343Z,1008.61
2017-02-24T13:44:23.863Z,1008.66
2017-02-24T13:45:35.367Z,1008.66
2017-02-24T13:46:46.879Z,1008.58
2017-02-24T13:47:58.634Z,1008.65
2017-02-24T13:49:10.115Z,1008.67
2017-02-24T13:50:21.650Z,1008.72
2017-02-24T13:51:33.343Z,1008.66
2017-02-24T13:52:44.856Z,1008.66
2017-02-24T13:53:56.361Z,1008.67
2017-02-24T13:55:07.867Z,1008.63
2017-02-24T13:56:19.580Z,1008.6
2017-02-24T13:57:31.135Z,1008.68
2017-02-24T13:58:42.650Z,1008.69
2017-02-24T13:59:54.168Z,1008.73
2017-02-24T14:01:05.670Z,1008.69
2017-02-24T14:02:17.168Z,1008.67
2017-02-24T14:03:28.668Z,1008.7
2017-02-24T14:04:40.237Z,1008.7
2017-02-24T14:05:51.965Z,1008.72
2017-02-24T14:07:03.669Z,1008.59
2017-02-24T14:08:15.424Z,1008.65
2017-02-24T14:09:26.943Z,1008.67
2017-02-24T14:10:38.450Z,1008.69
2017-02-24T14:11:49.964Z,1008.67
2017-02-24T14:13:01.671Z,1008.68
2017-02-24T14:14:13.205Z,1008.7
2017-02-24T14:15:24.715Z,1008.68
2017-02-24T14:16:36.227Z,1008.72
2017-02-24T14:17:47.735Z,1008.77
2017-02-24T14:18:59.313Z,1008.84
2017-02-24T14:20:11.029Z,1008.8
2017-02-24T14:21:22.535Z,1008.79
2017-02-24T14:22:34.036Z,1008.82
2017-02-24T14:23:45.546Z,1008.78
2017-02-24T14:24:57.053Z,1008.81
2017-02-24T14:26:08.554Z,1008.86
2017-02-24T14:27:20.061Z,1008.84
2017-02-24T14:28:31.538Z,1008.84
2017-02-24T14:29:43.081Z,1008.86
2017-02-24T14:30:54.628Z,1008.8
2017-02-24T14:32:06.141Z,1008.88
2017-02-24T14:33:17.631Z,1008.82
2017-02-24T14:34:29.112Z,1008.77
2017-02-24T14:35:40.686Z,1008.85
2017-02-24T14:36:52.397Z,1008.82
2017-02-24T14:38:03.898Z,1008.84